PDX weather

Portland International Airport
Portland, Oregon, United States

Public forecast

Using degrees Fahrenheit for public forecast. Weather courtesy of forecast.io.

METAR (pilot weather report)

Retrieved 2018/02/24 10:53 UTC (52 minutes ago):

KPDX 241053Z 22007KT 10SM -RA BKN012 OVC022 03/01 A3010 RMK AO2 RAB02 SLP191 P0001 T00280011

TAF (pilot weather forecast)

Retrieved 2018/02/24 06:24 UTC (5 hours ago):

TAF KPDX 240522Z 2406/2506 20008KT P6SM -SN SCT015 BKN025 OVC040 FM241000 20012KT P6SM -RASN BKN025 FM241300 24012G20KT P6SM -SHRA SCT015 BKN025 OVC040 FM241900 27010G18KT P6SM SCT025 BKN035 OVC045 FM250000 27007KT P6SM OVC050